• Join FlightAware (Why Join?)
  • Login
  • US Flag 
05:47AM EST


 

Airport Tracker/Info


-or-


 

Live Flight TrackerFlight Track Log ✈ EGF3721 ✈ 07-May-2013 ✈ KORD - KMCI

Flight Track Log - Related Links

Times and Time Zones

All times are in EDT time to prevent confusion due to time zone crossing. See the EGF3721 flight status page for this flight to view local times or setup timezone preferences in your user account.

Time Position Orientation Groundspeed Altitude Reporting Facility
EDT Latitude Longitude Course Direction KTS MPH feet Rate Location/Type
05:09PM 42.0167 -87.9667 253° West 179 206 2,300  Level Chicago TRACON
05:10PM 41.9007 -88.1816 242° Southwest  Level FlightAware Approximate
05:10PM 42.0667 -88.0167 323° Northwest 253 291 4,300  Level Chicago TRACON
05:11PM 41.8792 -88.3270 242° Southwest  Level FlightAware Approximate
05:11PM 42.1333 -88.0667 331° Northwest 271 312 6,400  Level Chicago TRACON
05:12PM 41.8371 -88.4646 255° West  Level FlightAware Approximate
05:12PM 42.1356 -88.1539 272° West 278 320 9,000  Level Chicago Center
05:13PM 41.8058 -88.6083 254° West  Level FlightAware Approximate
05:13PM 42.0922 -88.2731 244° Southwest 296 341 12,100  Level Chicago Center
05:14PM 41.7787 -88.7304 253° West  Level FlightAware Approximate
05:14PM 42.0597 -88.3747 247° West 299 344 15,000  Level Chicago Center
05:15PM 42.0269 -88.4783 247° West 303 349 17,200 1,500 Climbing Chicago Center
05:16PM 41.9897 -88.5956 247° West 336 387 18,200 1,200 Climbing Chicago Center
05:17PM 41.9492 -88.7264 247° West 375 432 19,800 1,800 Climbing Chicago Center
05:18PM 41.8972 -88.8858 246° West 391 450 22,000 1,740 Climbing Chicago Center
05:19PM 41.8542 -89.0217 247° West 398 458 23,500 1,320 Climbing Chicago Center
05:20PM 41.8089 -89.1619 247° West 411 473 24,800 1,200 Climbing Chicago Center
05:21PM 41.7636 -89.3058 247° West 422 486 26,100 1,320 Climbing Chicago Center
05:22PM 41.7075 -89.4800 247° West 428 493 27,600 1,200 Climbing Chicago Center
05:23PM 41.6611 -89.6214 246° West 434 499 28,700 960 Climbing Chicago Center
05:24PM 41.6122 -89.7697 246° West 435 501 29,700 960 Climbing Chicago Center
05:25PM 41.5633 -89.9206 247° West 441 507 30,700 960 Climbing Chicago Center
05:26PM 41.5133 -90.0711 246° West 445 512 31,700 1,020 Climbing Chicago Center
05:27PM 41.4536 -90.2500 246° West 445 512 32,900 1,020 Climbing Chicago Center
05:28PM 41.4047 -90.3992 246° West 443 510 33,900 480 Climbing Chicago Center
05:29PM 41.3531 -90.5497 245° Southwest 446 513 34,000  Climbing Chicago Center
05:30PM 41.2864 -90.6950 239° Southwest 453 521 34,000  Level Chicago Center
05:31PM 41.2100 -90.8281 233° Southwest 453 521 34,000  Level Chicago Center
05:32PM 41.1181 -90.9825 232° Southwest 447 514 34,000  Level Chicago Center
05:33PM 41.0392 -91.1139 232° Southwest 455 524 34,000  Level Chicago Center
05:34PM 40.9594 -91.2489 232° Southwest 465 535 34,000  Level Chicago Center
05:35PM 40.8778 -91.3861 232° Southwest 467 537 34,000  Level Chicago Center
05:36PM 40.7975 -91.5186 231° Southwest 466 536 34,000  Level Chicago Center
05:37PM 40.7189 -91.6481 231° Southwest 458 527 34,000  Level Chicago Center
05:38PM 40.6228 -91.8039 231° Southwest 459 528 34,000  Level Chicago Center
05:39PM 40.5594 -91.9072 231° Southwest 458 527 34,000  Level Kansas City Center
05:40PM 40.4803 -92.0361 231° Southwest 456 525 34,000  Level Kansas City Center
05:41PM 40.4019 -92.1642 231° Southwest 455 524 34,000  Level Kansas City Center
05:42PM 40.3231 -92.2911 231° Southwest 452 520 34,000  Level Kansas City Center
05:43PM 40.2347 -92.4294 230° Southwest 448 516 34,000 -60 Level Kansas City Center
05:45PM 40.1475 -92.5731 232° Southwest 450 518 33,900 -780 Descending Kansas City Center
05:46PM 40.0906 -92.7114 242° Southwest 453 521 32,400 -1,800 Descending Kansas City Center
05:47PM 40.0281 -92.8686 243° Southwest 456 525 30,200 -2,040 Descending Kansas City Center
05:48PM 39.9708 -93.0142 243° Southwest 456 525 28,200 -1,980 Descending Kansas City Center
05:49PM 39.9147 -93.1600 243° Southwest 454 522 26,200 -2,700 Descending Kansas City Center
05:50PM 39.8597 -93.3006 243° Southwest 443 510 22,700 -3,780 Descending Kansas City Center
05:51PM 39.7942 -93.4611 242° Southwest 425 489 18,500 -3,300 Descending Kansas City Center
05:52PM 39.7419 -93.5919 243° Southwest 417 480 16,000 -2,160 Descending Kansas City Center
05:53PM 39.6950 -93.7131 243° Southwest 379 436 14,100 -1,860 Descending Kansas City Center
05:54PM 39.6450 -93.8414 243° Southwest 371 427 12,200 -1,080 Descending Kansas City Center
05:55PM 39.5969 -93.9428 238° Southwest 330 380 11,900 -540 Descending Kansas City Center
05:56PM 39.5697 -94.0489 252° West 278 320 11,100 -1,080 Descending Kansas City Center
05:57PM 39.5528 -94.1464 257° West 288 331 9,700 -1,560 Descending Kansas City Center
05:58PM 39.5331 -94.2544 257° West 277 319 7,900 -1,620 Descending Kansas City Center
05:59PM 39.5156 -94.3458 256° West 274 315 6,400 -960 Descending Kansas City Center
06:00PM 39.4969 -94.4500 257° West 267 307 6,000 -840 Descending Kansas City Center
06:01PM 39.4789 -94.5392 255° West 267 307 4,700 -1,260 Descending Kansas City Center